createdAt,value
2023-03-12T00:00:04.760Z,-0.50
2023-03-12T00:02:35.468Z,-0.40
2023-03-12T00:05:02.487Z,-0.20
2023-03-12T00:07:29.265Z,-0.10
2023-03-12T00:09:56.155Z,0.00
2023-03-12T00:12:23.019Z,0.00
2023-03-12T00:14:49.891Z,-0.10
2023-03-12T00:17:16.763Z,-0.10
2023-03-12T00:19:45.240Z,-0.10
2023-03-12T00:22:12.080Z,-0.10
2023-03-12T00:24:39.008Z,-0.10
2023-03-12T00:27:06.972Z,-0.10
2023-03-12T00:29:33.923Z,-0.10
2023-03-12T00:32:00.794Z,-0.10
2023-03-12T00:34:27.685Z,-0.10
2023-03-12T00:36:54.512Z,-0.10
2023-03-12T00:39:21.405Z,-0.10
2023-03-12T00:41:48.298Z,-0.20
2023-03-12T00:44:15.130Z,-0.10
2023-03-12T00:46:42.040Z,-0.10
2023-03-12T00:49:08.933Z,-0.20
2023-03-12T00:51:35.758Z,-0.20
2023-03-12T00:54:02.700Z,-0.20
2023-03-12T00:56:29.834Z,-0.30
2023-03-12T00:58:57.019Z,-0.20
2023-03-12T01:01:24.146Z,-0.20
2023-03-12T01:04:09.842Z,-0.30
2023-03-12T01:06:37.042Z,-0.40
2023-03-12T01:09:06.227Z,-0.30
2023-03-12T01:11:34.192Z,-0.30
2023-03-12T01:14:02.458Z,-0.40
2023-03-12T01:16:30.356Z,-0.40
2023-03-12T01:18:58.336Z,-0.40
2023-03-12T01:21:26.378Z,-0.50
2023-03-12T01:23:55.184Z,-0.50
2023-03-12T01:26:23.024Z,-0.50
2023-03-12T01:28:50.153Z,-0.60
2023-03-12T01:31:18.972Z,-0.60
2023-03-12T01:33:50.476Z,-0.60
2023-03-12T01:36:29.063Z,-0.60
2023-03-12T01:38:58.638Z,-0.60
2023-03-12T01:41:28.832Z,-0.70
2023-03-12T01:43:56.049Z,-0.70
2023-03-12T01:46:24.148Z,-0.70
2023-03-12T01:49:01.376Z,-0.70
2023-03-12T01:51:43.415Z,-0.70
2023-03-12T01:54:20.828Z,-0.70
2023-03-12T01:56:48.339Z,-0.70
2023-03-12T01:59:43.967Z,-0.70
2023-03-12T02:02:11.199Z,-0.80
2023-03-12T02:04:39.813Z,-0.80
2023-03-12T02:07:13.361Z,-0.70
2023-03-12T02:09:49.439Z,-0.80
2023-03-12T02:12:17.137Z,-0.80
2023-03-12T02:14:44.212Z,-0.80
2023-03-12T02:17:11.285Z,-0.80
2023-03-12T02:19:59.652Z,-0.80
2023-03-12T02:22:26.895Z,-0.90
2023-03-12T02:25:03.894Z,-0.90
2023-03-12T02:27:37.000Z,-0.80
2023-03-12T02:30:05.571Z,-0.80
2023-03-12T02:32:39.527Z,-0.80
2023-03-12T02:35:07.200Z,-0.80
2023-03-12T02:37:33.996Z,-0.80
2023-03-12T02:40:07.830Z,-0.80
2023-03-12T02:42:34.795Z,-0.80
2023-03-12T02:45:03.273Z,-0.80
2023-03-12T02:47:30.147Z,-0.90
2023-03-12T02:49:56.974Z,-0.90
2023-03-12T02:52:23.924Z,-0.90
2023-03-12T02:54:50.799Z,-0.90
2023-03-12T02:57:18.079Z,-0.90
2023-03-12T02:59:45.183Z,-1.00
2023-03-12T03:02:13.040Z,-1.00
2023-03-12T03:04:40.106Z,-1.00
2023-03-12T03:07:07.305Z,-1.00
2023-03-12T03:09:34.354Z,-1.00
2023-03-12T03:12:01.540Z,-1.00
2023-03-12T03:14:31.170Z,-1.00
2023-03-12T03:16:58.135Z,-1.10
2023-03-12T03:19:24.959Z,-1.10
2023-03-12T03:21:51.796Z,-1.00
2023-03-12T03:24:18.666Z,-1.00
2023-03-12T03:26:45.654Z,-1.00
2023-03-12T03:29:13.115Z,-1.00
2023-03-12T03:31:40.158Z,-1.00
2023-03-12T03:34:06.999Z,-1.00
2023-03-12T03:36:34.060Z,-1.00
2023-03-12T03:39:05.631Z,-1.00
2023-03-12T03:41:33.076Z,-1.00
2023-03-12T03:44:00.136Z,-1.00
2023-03-12T03:46:29.372Z,-1.20
2023-03-12T03:49:02.300Z,-1.20
2023-03-12T03:51:29.896Z,-1.30
2023-03-12T03:54:00.897Z,-1.30
2023-03-12T03:56:28.632Z,-1.30
2023-03-12T03:58:58.208Z,-1.40
2023-03-12T04:01:25.918Z,-1.40
2023-03-12T04:03:52.793Z,-1.30
2023-03-12T04:06:19.772Z,-1.40
2023-03-12T04:08:46.997Z,-1.40
2023-03-12T04:11:19.462Z,-1.40
2023-03-12T04:13:46.744Z,-1.30
2023-03-12T04:16:16.700Z,-1.40
2023-03-12T04:18:44.838Z,-1.40
2023-03-12T04:21:13.607Z,-1.40
2023-03-12T04:23:41.564Z,-1.40
2023-03-12T04:26:10.027Z,-1.40
2023-03-12T04:28:38.259Z,-1.40
2023-03-12T04:31:07.633Z,-1.50
2023-03-12T04:33:41.275Z,-1.50
2023-03-12T04:36:09.839Z,-1.50
2023-03-12T04:38:39.808Z,-1.50
2023-03-12T04:41:11.109Z,-1.50
2023-03-12T04:43:41.278Z,-1.50
2023-03-12T04:46:09.171Z,-1.60
2023-03-12T04:48:37.038Z,-1.60
2023-03-12T04:51:04.943Z,-1.60
2023-03-12T04:53:31.937Z,-1.60
2023-03-12T04:55:59.484Z,-1.60
2023-03-12T04:58:27.704Z,-1.60
2023-03-12T05:00:54.590Z,-1.60
2023-03-12T05:03:23.320Z,-1.60
2023-03-12T05:05:50.682Z,-1.70
2023-03-12T05:08:17.525Z,-1.60
2023-03-12T05:10:47.086Z,-1.60
2023-03-12T05:13:22.365Z,-1.60
2023-03-12T05:15:51.984Z,-1.60
2023-03-12T05:18:22.897Z,-1.70
2023-03-12T05:21:04.798Z,-1.70
2023-03-12T05:23:31.879Z,-1.70
2023-03-12T05:25:59.075Z,-1.60
2023-03-12T05:28:28.425Z,-1.60
2023-03-12T05:30:59.549Z,-1.60
2023-03-12T05:33:27.982Z,-1.60
2023-03-12T05:35:55.424Z,-1.60
2023-03-12T05:38:22.336Z,-1.60
2023-03-12T05:40:59.203Z,-1.50
2023-03-12T05:43:28.749Z,-1.50
2023-03-12T05:46:00.842Z,-1.60
2023-03-12T05:48:28.323Z,-1.60
2023-03-12T05:50:56.461Z,-1.60
2023-03-12T05:53:24.420Z,-1.60
2023-03-12T05:55:51.354Z,-1.60
2023-03-12T05:58:18.458Z,-1.70
2023-03-12T06:00:45.597Z,-1.70
2023-03-12T06:03:13.753Z,-1.70
2023-03-12T06:05:41.709Z,-1.60
2023-03-12T06:08:08.592Z,-1.60
2023-03-12T06:10:39.036Z,-1.60
2023-03-12T06:13:06.588Z,-1.60
2023-03-12T06:15:33.528Z,-1.60
2023-03-12T06:18:01.046Z,-1.60
2023-03-12T06:20:27.885Z,-1.50
2023-03-12T06:22:55.045Z,-1.60
2023-03-12T06:25:21.917Z,-1.50
2023-03-12T06:27:48.785Z,-1.60
2023-03-12T06:30:16.205Z,-1.60
2023-03-12T06:32:43.037Z,-1.60
2023-03-12T06:35:10.122Z,-1.60
2023-03-12T06:37:36.973Z,-1.50
2023-03-12T06:40:05.019Z,-1.50
2023-03-12T06:42:32.361Z,-1.50
2023-03-12T06:44:59.193Z,-1.50
2023-03-12T06:47:26.016Z,-1.40
2023-03-12T06:49:52.822Z,-1.40
2023-03-12T06:52:19.811Z,-1.30
2023-03-12T06:54:46.615Z,-1.20
2023-03-12T06:57:13.504Z,-1.20
2023-03-12T06:59:40.310Z,-1.20
2023-03-12T07:02:07.225Z,-1.20
2023-03-12T07:04:34.061Z,-1.20
2023-03-12T07:07:00.867Z,-1.20
2023-03-12T07:09:27.742Z,-1.10
2023-03-12T07:11:54.581Z,-1.10
2023-03-12T07:14:21.532Z,-1.10
2023-03-12T07:16:48.445Z,-1.00
2023-03-12T07:19:15.467Z,-1.00
2023-03-12T07:21:42.358Z,-1.00
2023-03-12T07:24:09.961Z,-0.90
2023-03-12T07:26:36.909Z,-0.90
2023-03-12T07:29:05.196Z,-1.10
2023-03-12T07:31:32.135Z,-1.10
2023-03-12T07:33:59.204Z,-1.10
2023-03-12T07:36:26.402Z,-1.10
2023-03-12T07:38:53.230Z,-1.20
2023-03-12T07:41:20.161Z,-1.20
2023-03-12T07:43:47.311Z,-1.10
2023-03-12T07:46:14.380Z,-1.10
2023-03-12T07:48:44.098Z,-1.10
2023-03-12T07:51:11.292Z,-1.00
2023-03-12T07:53:38.999Z,-0.90
2023-03-12T07:56:06.408Z,-0.90
2023-03-12T07:58:36.306Z,-0.90
2023-03-12T08:01:03.499Z,-0.90
2023-03-12T08:03:30.879Z,-1.00
2023-03-12T08:05:59.964Z,-1.00
2023-03-12T08:08:27.305Z,-0.90
2023-03-12T08:10:54.330Z,-0.90
2023-03-12T08:13:22.865Z,-1.00
2023-03-12T08:15:51.514Z,-1.00
2023-03-12T08:18:19.751Z,-1.00
2023-03-12T08:20:50.066Z,-0.90
2023-03-12T08:23:16.870Z,-1.00
2023-03-12T08:25:49.304Z,-1.10
2023-03-12T08:28:17.380Z,-1.20
2023-03-12T08:30:53.049Z,-1.30
2023-03-12T08:33:21.263Z,-1.20
2023-03-12T08:35:49.576Z,-1.20
2023-03-12T08:38:16.664Z,-1.20
2023-03-12T08:40:44.529Z,-1.20
2023-03-12T08:43:11.450Z,-1.20
2023-03-12T08:45:38.312Z,-1.20
2023-03-12T08:48:07.063Z,-1.20
2023-03-12T08:50:33.914Z,-1.20
2023-03-12T08:53:01.030Z,-1.10
2023-03-12T08:55:28.157Z,-1.10
2023-03-12T08:57:55.950Z,-1.10
2023-03-12T09:00:22.998Z,-1.10
2023-03-12T09:02:52.122Z,-1.10
2023-03-12T09:05:19.416Z,-1.10
2023-03-12T09:07:46.335Z,-1.10
2023-03-12T09:10:13.213Z,-1.00
2023-03-12T09:12:40.178Z,-0.90
2023-03-12T09:15:08.382Z,-1.10
2023-03-12T09:17:35.353Z,-1.10
2023-03-12T09:20:02.177Z,-1.00
2023-03-12T09:22:30.518Z,-1.10
2023-03-12T09:24:57.398Z,-1.10
2023-03-12T09:27:24.741Z,-0.90
2023-03-12T09:29:59.988Z,-0.80
2023-03-12T09:32:28.012Z,-0.80
2023-03-12T09:34:55.101Z,-0.90
2023-03-12T09:37:24.096Z,-0.90
2023-03-12T09:39:52.471Z,-0.90
2023-03-12T09:42:30.273Z,-0.80
2023-03-12T09:45:00.428Z,-0.80
2023-03-12T09:47:31.910Z,-0.90
2023-03-12T09:50:25.337Z,-0.80
2023-03-12T09:52:58.382Z,-0.60
2023-03-12T09:55:26.018Z,-0.60
2023-03-12T09:57:53.550Z,-0.80
2023-03-12T10:00:23.783Z,-0.70
2023-03-12T10:03:19.917Z,-0.70
2023-03-12T10:06:01.479Z,-0.70
2023-03-12T10:08:50.867Z,-0.60
2023-03-12T10:11:44.987Z,-0.50
2023-03-12T10:14:30.643Z,-0.30
2023-03-12T10:17:17.741Z,-0.30
2023-03-12T10:20:07.861Z,-0.30
2023-03-12T10:22:58.599Z,-0.30
2023-03-12T10:25:59.892Z,-0.20
2023-03-12T10:28:33.168Z,-0.30
2023-03-12T10:31:05.259Z,-0.20
2023-03-12T10:33:53.718Z,-0.20
2023-03-12T10:36:29.561Z,-0.20
2023-03-12T10:38:56.435Z,-0.10
2023-03-12T10:41:26.412Z,0.00
2023-03-12T10:43:54.217Z,0.10
2023-03-12T10:46:29.837Z,0.10
2023-03-12T10:49:21.317Z,0.30
2023-03-12T10:52:11.607Z,0.30
2023-03-12T10:54:40.778Z,0.30
2023-03-12T10:57:08.683Z,0.20
2023-03-12T10:59:44.237Z,0.20
2023-03-12T11:02:52.985Z,0.30
2023-03-12T11:05:26.131Z,0.40
2023-03-12T11:07:53.063Z,0.50
2023-03-12T11:10:46.965Z,0.60
2023-03-12T11:13:36.497Z,0.70
2023-03-12T11:16:25.341Z,0.70
2023-03-12T11:19:02.117Z,0.70
2023-03-12T11:21:30.493Z,0.70
2023-03-12T11:23:57.290Z,0.60
2023-03-12T11:26:49.330Z,0.60
2023-03-12T11:29:31.567Z,0.70
2023-03-12T11:32:15.256Z,0.60
2023-03-12T11:34:42.989Z,0.60
2023-03-12T11:37:13.120Z,0.80
2023-03-12T11:39:43.012Z,0.80
2023-03-12T11:42:43.743Z,0.80
2023-03-12T11:49:24.678Z,0.80
2023-03-12T11:52:20.581Z,0.70
2023-03-12T11:55:21.309Z,0.90
2023-03-12T11:58:06.670Z,0.80
2023-03-12T12:00:53.252Z,0.70
2023-03-12T12:03:35.154Z,0.80
2023-03-12T12:06:06.481Z,1.00
2023-03-12T12:08:45.248Z,1.00
2023-03-12T12:11:54.609Z,1.00
2023-03-12T12:14:40.333Z,1.10
2023-03-12T12:17:24.966Z,1.10
2023-03-12T12:20:28.909Z,1.00
2023-03-12T12:23:17.348Z,1.10
2023-03-12T12:26:08.419Z,1.20
2023-03-12T12:28:54.179Z,1.20
2023-03-12T12:31:47.991Z,1.20
2023-03-12T12:34:17.696Z,1.20
2023-03-12T12:36:49.831Z,1.10
2023-03-12T12:39:32.482Z,1.00
2023-03-12T12:42:05.674Z,1.00
2023-03-12T12:44:41.207Z,1.00
2023-03-12T12:47:17.327Z,1.20
2023-03-12T12:49:48.920Z,1.10
2023-03-12T12:52:21.283Z,1.20
2023-03-12T12:54:51.044Z,1.20
2023-03-12T12:57:45.557Z,1.30
2023-03-12T13:00:27.254Z,1.20
2023-03-12T13:02:57.512Z,1.20
2023-03-12T13:05:40.039Z,1.40
2023-03-12T13:08:10.624Z,1.40
2023-03-12T13:10:48.537Z,1.40
2023-03-12T13:13:26.821Z,1.40
2023-03-12T13:16:19.460Z,1.30
2023-03-12T13:19:18.448Z,1.30
2023-03-12T13:22:04.050Z,1.20
2023-03-12T13:24:41.637Z,1.30
2023-03-12T13:27:23.775Z,1.30
2023-03-12T13:29:56.810Z,1.30
2023-03-12T13:32:35.636Z,1.30
2023-03-12T13:35:14.479Z,1.30
2023-03-12T13:37:47.193Z,1.30
2023-03-12T13:40:29.419Z,1.40
2023-03-12T13:43:02.075Z,1.50
2023-03-12T13:45:31.846Z,1.40
2023-03-12T13:48:01.686Z,1.40
2023-03-12T13:50:30.689Z,1.50
2023-03-12T13:53:02.633Z,1.60
2023-03-12T13:55:32.193Z,1.50
2023-03-12T13:58:21.549Z,1.60
2023-03-12T14:00:55.140Z,1.70
2023-03-12T14:03:32.424Z,1.60
2023-03-12T14:06:14.712Z,1.60
2023-03-12T14:08:44.377Z,1.60
2023-03-12T14:11:49.590Z,1.70
2023-03-12T14:14:45.954Z,1.70
2023-03-12T14:17:23.600Z,1.80
2023-03-12T14:20:14.957Z,1.80
2023-03-12T14:22:45.584Z,1.80
2023-03-12T14:25:17.762Z,1.90
2023-03-12T14:27:48.618Z,1.90
2023-03-12T14:30:15.428Z,2.00
2023-03-12T14:32:43.701Z,2.00
2023-03-12T14:35:36.794Z,2.10
2023-03-12T14:38:31.823Z,2.20
2023-03-12T14:41:01.707Z,2.40
2023-03-12T14:43:31.382Z,2.40
2023-03-12T14:46:04.828Z,2.50
2023-03-12T14:48:35.103Z,2.50
2023-03-12T14:51:04.206Z,2.60
2023-03-12T14:53:33.068Z,2.70
2023-03-12T14:56:05.352Z,2.80
2023-03-12T14:58:34.156Z,2.80
2023-03-12T15:01:12.273Z,2.90
2023-03-12T15:03:49.150Z,2.90
2023-03-12T15:06:38.244Z,2.90
2023-03-12T15:09:07.288Z,2.90
2023-03-12T15:15:47.117Z,2.80
2023-03-12T15:18:20.760Z,2.60
2023-03-12T15:20:49.452Z,2.30
2023-03-12T15:23:18.631Z,2.20
2023-03-12T15:25:46.095Z,2.10
2023-03-12T15:28:15.650Z,2.00
2023-03-12T15:30:43.757Z,1.90
2023-03-12T15:33:26.629Z,1.70
2023-03-12T15:36:04.927Z,1.60
2023-03-12T15:38:35.050Z,1.50
2023-03-12T15:41:08.993Z,1.40
2023-03-12T15:43:37.676Z,1.40
2023-03-12T15:46:06.948Z,1.30
2023-03-12T15:48:39.821Z,1.30
2023-03-12T15:51:31.894Z,1.30
2023-03-12T15:54:14.501Z,1.40
2023-03-12T15:56:41.387Z,1.40
2023-03-12T15:59:17.292Z,1.40
2023-03-12T16:01:49.422Z,1.30
2023-03-12T16:04:16.607Z,1.20
2023-03-12T16:06:47.014Z,1.10
2023-03-12T16:09:24.512Z,1.10
2023-03-12T16:11:53.459Z,1.00
2023-03-12T16:14:30.729Z,1.00
2023-03-12T16:16:57.564Z,0.90
2023-03-12T16:19:28.073Z,0.90
2023-03-12T16:21:54.977Z,0.90
2023-03-12T16:24:21.877Z,0.90
2023-03-12T16:26:52.022Z,0.80
2023-03-12T16:29:20.301Z,0.80
2023-03-12T16:31:55.752Z,0.80
2023-03-12T16:34:23.233Z,0.70
2023-03-12T16:36:50.498Z,0.70
2023-03-12T16:39:18.950Z,0.70
2023-03-12T16:41:47.096Z,0.70
2023-03-12T16:44:21.042Z,0.60
2023-03-12T16:46:48.022Z,0.60
2023-03-12T16:49:17.033Z,0.60
2023-03-12T16:51:43.933Z,0.60
2023-03-12T16:54:12.294Z,0.50
2023-03-12T16:56:43.408Z,0.50
2023-03-12T16:59:28.600Z,0.50
2023-03-12T17:01:56.547Z,0.50
2023-03-12T17:04:23.533Z,0.50
2023-03-12T17:06:50.501Z,0.50
2023-03-12T17:09:18.711Z,0.50
2023-03-12T17:11:45.782Z,0.40
2023-03-12T17:14:19.968Z,0.40
2023-03-12T17:16:46.784Z,0.40
2023-03-12T17:19:13.769Z,0.40
2023-03-12T17:21:41.082Z,0.40
2023-03-12T17:24:08.136Z,0.40
2023-03-12T17:26:35.204Z,0.30
2023-03-12T17:29:02.202Z,0.30
2023-03-12T17:31:29.079Z,0.30
2023-03-12T17:33:55.973Z,0.30
2023-03-12T17:36:22.957Z,0.30
2023-03-12T17:38:50.996Z,0.20
2023-03-12T17:41:26.100Z,0.10
2023-03-12T17:43:53.812Z,0.20
2023-03-12T17:46:20.708Z,0.10
2023-03-12T17:48:47.514Z,0.10
2023-03-12T17:51:14.278Z,0.10
2023-03-12T17:53:41.904Z,0.10
2023-03-12T17:56:09.275Z,0.10
2023-03-12T17:58:36.102Z,0.10
2023-03-12T18:01:02.938Z,0.10
2023-03-12T18:03:29.859Z,0.10
2023-03-12T18:05:56.787Z,0.10
2023-03-12T18:08:23.630Z,0.10
2023-03-12T18:10:50.661Z,0.20
2023-03-12T18:13:17.463Z,0.30
2023-03-12T18:15:54.099Z,0.20
2023-03-12T18:18:21.971Z,0.30
2023-03-12T18:20:49.208Z,0.20
2023-03-12T18:23:16.126Z,0.20
2023-03-12T18:25:42.982Z,0.20
2023-03-12T18:28:09.852Z,0.30
2023-03-12T18:30:36.723Z,0.30
2023-03-12T18:33:03.884Z,0.20
2023-03-12T18:35:30.755Z,0.20
2023-03-12T18:37:58.622Z,0.10
2023-03-12T18:40:27.643Z,0.10
2023-03-12T18:42:57.529Z,0.10
2023-03-12T18:45:24.400Z,0.10
2023-03-12T18:47:51.286Z,0.10
2023-03-12T18:50:18.304Z,0.10
2023-03-12T18:52:45.109Z,0.20
2023-03-12T18:55:15.365Z,0.20
2023-03-12T18:57:43.202Z,0.30
2023-03-12T19:00:15.053Z,0.30
2023-03-12T19:02:42.532Z,0.30
2023-03-12T19:05:11.020Z,0.30
2023-03-12T19:07:39.157Z,0.30
2023-03-12T19:10:08.564Z,0.40
2023-03-12T19:12:42.352Z,0.40
2023-03-12T19:15:17.629Z,0.40
2023-03-12T19:17:44.530Z,0.40
2023-03-12T19:20:12.234Z,0.40
2023-03-12T19:22:39.027Z,0.40
2023-03-12T19:25:06.359Z,0.40
2023-03-12T19:27:33.168Z,0.40
2023-03-12T19:29:59.947Z,0.40
2023-03-12T19:32:33.354Z,0.40
2023-03-12T19:35:11.082Z,0.40
2023-03-12T19:37:38.015Z,0.40
2023-03-12T19:40:08.311Z,0.40
2023-03-12T19:42:35.131Z,0.40
2023-03-12T19:45:01.960Z,0.40
2023-03-12T19:47:29.362Z,0.50
2023-03-12T19:49:56.241Z,0.50
2023-03-12T19:52:23.583Z,0.40
2023-03-12T19:55:03.454Z,0.40
2023-03-12T19:57:31.773Z,0.40
2023-03-12T19:59:58.613Z,0.40
2023-03-12T20:02:26.092Z,0.50
2023-03-12T20:04:53.209Z,0.40
2023-03-12T20:07:20.003Z,0.50
2023-03-12T20:09:46.816Z,0.50
2023-03-12T20:12:13.635Z,0.50
2023-03-12T20:14:42.653Z,0.50
2023-03-12T20:17:11.136Z,0.50
2023-03-12T20:19:38.705Z,0.50
2023-03-12T20:22:06.470Z,0.50
2023-03-12T20:24:33.297Z,0.60
2023-03-12T20:27:00.216Z,0.60
2023-03-12T20:29:27.117Z,0.60
2023-03-12T20:31:54.001Z,0.60
2023-03-12T20:34:20.914Z,0.50
2023-03-12T20:36:47.729Z,0.50
2023-03-12T20:39:14.617Z,0.60
2023-03-12T20:41:41.426Z,0.60
2023-03-12T20:44:08.241Z,0.60
2023-03-12T20:46:35.020Z,0.60
2023-03-12T20:49:01.860Z,0.60
2023-03-12T20:51:28.652Z,0.60
2023-03-12T20:53:55.442Z,0.60
2023-03-12T20:56:22.251Z,0.60
2023-03-12T20:58:49.124Z,0.60
2023-03-12T21:01:16.096Z,0.60
2023-03-12T21:03:42.966Z,0.60
2023-03-12T21:06:09.774Z,0.50
2023-03-12T21:08:36.724Z,0.50
2023-03-12T21:11:07.941Z,0.50
2023-03-12T21:13:36.145Z,0.50
2023-03-12T21:16:06.389Z,0.40
2023-03-12T21:18:33.350Z,0.40
2023-03-12T21:21:05.205Z,0.40
2023-03-12T21:23:32.879Z,0.40
2023-03-12T21:26:02.729Z,0.40
2023-03-12T21:28:29.905Z,0.40
2023-03-12T21:31:05.408Z,0.40
2023-03-12T21:33:32.390Z,0.30
2023-03-12T21:35:59.250Z,0.20
2023-03-12T21:38:26.047Z,0.20
2023-03-12T21:40:54.271Z,0.20
2023-03-12T21:43:21.158Z,0.20
2023-03-12T21:45:48.043Z,0.20
2023-03-12T21:48:14.957Z,0.20
2023-03-12T21:50:41.828Z,0.20
2023-03-12T21:53:22.794Z,0.20
2023-03-12T21:56:00.628Z,0.20
2023-03-12T21:58:29.243Z,0.10
2023-03-12T22:01:16.478Z,0.10
2023-03-12T22:03:45.119Z,0.10
2023-03-12T22:06:13.111Z,0.10
2023-03-12T22:08:40.955Z,0.20
2023-03-12T22:11:09.152Z,0.20
2023-03-12T22:13:36.237Z,0.20
2023-03-12T22:16:07.768Z,0.20
2023-03-12T22:18:39.099Z,0.10
2023-03-12T22:21:07.607Z,0.10
2023-03-12T22:23:36.477Z,0.10
2023-03-12T22:26:05.418Z,0.10
2023-03-12T22:28:32.545Z,0.10
2023-03-12T22:31:04.935Z,0.10
2023-03-12T22:33:32.434Z,0.10
2023-03-12T22:35:59.296Z,0.10
2023-03-12T22:38:26.145Z,0.10
2023-03-12T22:40:55.479Z,0.10
2023-03-12T22:43:24.797Z,0.10
2023-03-12T22:45:54.867Z,0.00
2023-03-12T22:48:21.705Z,0.00
2023-03-12T22:50:54.809Z,0.00
2023-03-12T22:53:21.735Z,0.00
2023-03-12T22:55:57.521Z,0.00
2023-03-12T22:58:24.738Z,-0.10
2023-03-12T23:00:57.497Z,-0.20
2023-03-12T23:03:24.318Z,-0.20
2023-03-12T23:05:51.145Z,-0.20
2023-03-12T23:08:17.972Z,-0.30
2023-03-12T23:10:51.504Z,-0.30
2023-03-12T23:13:18.312Z,-0.40
2023-03-12T23:15:45.127Z,-0.40
2023-03-12T23:18:11.999Z,-0.50
2023-03-12T23:20:38.919Z,-0.50
2023-03-12T23:23:05.768Z,-0.60
2023-03-12T23:25:32.625Z,-0.60
2023-03-12T23:27:59.615Z,-0.80
2023-03-12T23:30:26.745Z,-0.90
2023-03-12T23:32:53.927Z,-1.00
2023-03-12T23:35:21.179Z,-1.10
2023-03-12T23:37:49.591Z,-1.20
2023-03-12T23:40:17.158Z,-1.30
2023-03-12T23:42:44.548Z,-1.40
2023-03-12T23:45:12.473Z,-1.50
2023-03-12T23:47:39.276Z,-1.60
2023-03-12T23:50:06.664Z,-1.80
2023-03-12T23:52:33.509Z,-1.90
2023-03-12T23:55:00.274Z,-1.90
2023-03-12T23:57:27.186Z,-2.00
2023-03-12T23:59:53.948Z,-2.10
